createdAt,value
2023-04-27T03:58:20.850Z,1014.70
2023-04-27T03:59:20.818Z,1014.71
2023-04-27T04:00:20.783Z,1014.71
2023-04-27T04:01:20.793Z,1014.73
2023-04-27T04:02:20.856Z,1014.73
2023-04-27T04:03:20.970Z,1014.70
2023-04-27T04:04:20.924Z,1014.69
2023-04-27T04:05:20.777Z,1014.71
2023-04-27T04:06:20.784Z,1014.72
2023-04-27T04:07:20.728Z,1014.70
2023-04-27T04:08:20.746Z,1014.70
2023-04-27T04:09:22.714Z,1014.67
2023-04-27T04:10:20.731Z,1014.67
2023-04-27T04:11:20.704Z,1014.67
2023-04-27T04:12:20.703Z,1014.74
2023-04-27T04:13:20.714Z,1014.68
2023-04-27T04:14:20.712Z,1014.66
2023-04-27T04:15:20.692Z,1014.68
2023-04-27T04:16:20.734Z,1014.70
2023-04-27T04:17:21.104Z,1014.68
2023-04-27T04:18:20.729Z,1014.71
2023-04-27T04:19:22.114Z,1014.72
2023-04-27T04:20:20.681Z,1014.70
2023-04-27T04:21:20.669Z,1014.76
2023-04-27T04:22:20.677Z,1014.73
2023-04-27T04:23:20.680Z,1014.72
2023-04-27T04:24:20.654Z,1014.71
2023-04-27T04:25:20.683Z,1014.75
2023-04-27T04:26:20.661Z,1014.80
2023-04-27T04:27:20.658Z,1014.75
2023-04-27T04:28:20.642Z,1014.77
2023-04-27T04:29:20.616Z,1014.78
2023-04-27T04:30:20.674Z,1014.77
2023-04-27T04:31:20.686Z,1014.82
2023-04-27T04:32:20.630Z,1014.84
2023-04-27T04:33:20.615Z,1014.84
2023-04-27T04:34:20.672Z,1014.83
2023-04-27T04:35:20.657Z,1014.86
2023-04-27T04:36:20.600Z,1014.86
2023-04-27T04:37:20.637Z,1014.88
2023-04-27T04:38:20.588Z,1014.89
2023-04-27T04:39:20.583Z,1014.92
2023-04-27T04:40:20.575Z,1014.90
2023-04-27T04:41:20.592Z,1014.95
2023-04-27T04:42:20.567Z,1014.95
2023-04-27T04:43:20.582Z,1014.99
2023-04-27T04:44:20.580Z,1014.99
2023-04-27T04:45:20.579Z,1014.99
2023-04-27T04:46:20.620Z,1014.97
2023-04-27T04:47:20.595Z,1014.96
2023-04-27T04:48:20.552Z,1015.03
2023-04-27T04:49:20.552Z,1014.97
2023-04-27T04:50:20.564Z,1014.98
2023-04-27T04:51:20.527Z,1015.00
2023-04-27T04:52:20.553Z,1015.01
2023-04-27T04:53:20.538Z,1015.04
2023-04-27T04:54:20.576Z,1015.08
2023-04-27T04:55:20.519Z,1015.07
2023-04-27T04:56:20.514Z,1015.10
2023-04-27T04:57:20.546Z,1015.17
2023-04-27T04:58:20.495Z,1015.13
2023-04-27T04:59:20.501Z,1015.15
2023-04-27T05:00:20.515Z,1015.13
2023-04-27T05:01:20.544Z,1015.13
2023-04-27T05:02:20.574Z,1015.13
2023-04-27T05:03:20.659Z,1015.11
2023-04-27T05:04:20.865Z,1015.09
2023-04-27T05:05:20.489Z,1015.15
2023-04-27T05:06:20.482Z,1015.12
2023-04-27T05:07:24.658Z,1015.14
2023-04-27T05:08:20.521Z,1015.14
2023-04-27T05:09:20.476Z,1015.14
2023-04-27T05:10:20.449Z,1015.15
2023-04-27T05:11:20.489Z,1015.16
2023-04-27T05:12:20.456Z,1015.13
2023-04-27T05:13:20.457Z,1015.14
2023-04-27T05:14:20.438Z,1015.14
2023-04-27T05:15:20.447Z,1015.16
2023-04-27T05:16:20.516Z,1015.18
2023-04-27T05:17:20.459Z,1015.19
2023-04-27T05:18:20.459Z,1015.21
2023-04-27T05:19:20.432Z,1015.19
2023-04-27T05:20:20.818Z,1015.22
2023-04-27T05:21:20.440Z,1015.23
2023-04-27T05:22:20.411Z,1015.21
2023-04-27T05:23:20.428Z,1015.24
2023-04-27T05:24:20.402Z,1015.27
2023-04-27T05:25:20.386Z,1015.22
2023-04-27T05:26:20.403Z,1015.24
2023-04-27T05:27:20.375Z,1015.24
2023-04-27T05:28:20.379Z,1015.25
2023-04-27T05:29:20.383Z,1015.26
2023-04-27T05:30:20.391Z,1015.28
2023-04-27T05:31:20.428Z,1015.26
2023-04-27T05:32:20.384Z,1015.29
2023-04-27T05:33:20.360Z,1015.28
2023-04-27T05:34:20.376Z,1015.29
2023-04-27T05:35:20.348Z,1015.26
2023-04-27T05:36:20.336Z,1015.27
2023-04-27T05:37:20.367Z,1015.29
2023-04-27T05:38:20.380Z,1015.33
2023-04-27T05:39:20.383Z,1015.36
2023-04-27T05:40:20.376Z,1015.31
2023-04-27T05:41:20.376Z,1015.32
2023-04-27T05:42:20.376Z,1015.31
2023-04-27T05:43:20.340Z,1015.31
2023-04-27T05:44:20.350Z,1015.29
2023-04-27T05:45:20.354Z,1015.30
2023-04-27T05:46:20.419Z,1015.33
2023-04-27T05:47:20.310Z,1015.33
2023-04-27T05:48:20.355Z,1015.33
2023-04-27T05:49:20.293Z,1015.38
2023-04-27T05:50:20.338Z,1015.41
2023-04-27T05:51:20.295Z,1015.44
2023-04-27T05:52:20.321Z,1015.45
2023-04-27T05:53:20.290Z,1015.46
2023-04-27T05:54:20.314Z,1015.47
2023-04-27T05:55:20.332Z,1015.51
2023-04-27T05:56:20.319Z,1015.54
2023-04-27T05:57:20.413Z,1015.53
2023-04-27T05:58:20.316Z,1015.52
2023-04-27T05:59:20.289Z,1015.55
2023-04-27T06:00:20.302Z,1015.53
2023-04-27T06:01:20.268Z,1015.55
2023-04-27T06:02:20.491Z,1015.55
2023-04-27T06:03:20.537Z,1015.56
2023-04-27T06:04:20.597Z,1015.57
2023-04-27T06:05:20.261Z,1015.59
2023-04-27T06:06:20.244Z,1015.62
2023-04-27T06:07:20.270Z,1015.60
2023-04-27T06:08:20.247Z,1015.66
2023-04-27T06:09:20.223Z,1015.68
2023-04-27T06:10:20.229Z,1015.65
2023-04-27T06:11:20.208Z,1015.61
2023-04-27T06:12:20.213Z,1015.59
2023-04-27T06:13:20.276Z,1015.59
2023-04-27T06:14:20.216Z,1015.56
2023-04-27T06:15:20.206Z,1015.56
2023-04-27T06:16:20.289Z,1015.59
2023-04-27T06:17:20.219Z,1015.62
2023-04-27T06:18:20.238Z,1015.64
2023-04-27T06:19:20.253Z,1015.61
2023-04-27T06:20:20.211Z,1015.62
2023-04-27T06:21:20.198Z,1015.60
2023-04-27T06:22:20.199Z,1015.59
2023-04-27T06:23:20.699Z,1015.59
2023-04-27T06:24:20.196Z,1015.59
2023-04-27T06:25:20.248Z,1015.58
2023-04-27T06:28:52.881Z,1015.62
2023-04-27T06:29:52.737Z,1015.58
2023-04-27T06:30:52.761Z,1015.57
2023-04-27T06:31:52.812Z,1015.53
2023-04-27T06:32:52.806Z,1015.56
2023-04-27T06:33:52.755Z,1015.53
2023-04-27T06:34:52.741Z,1015.59
2023-04-27T06:35:52.774Z,1015.56
2023-04-27T06:36:52.729Z,1015.54
2023-04-27T06:37:52.827Z,1015.58
2023-04-27T06:38:52.730Z,1015.56
2023-04-27T06:39:52.717Z,1015.57
2023-04-27T06:40:52.866Z,1015.55
2023-04-27T06:41:52.760Z,1015.53
2023-04-27T06:42:52.728Z,1015.51
2023-04-27T06:43:52.794Z,1015.53
2023-04-27T06:44:52.788Z,1015.57
2023-04-27T06:45:52.770Z,1015.55
2023-04-27T06:46:52.723Z,1015.55
2023-04-27T06:47:52.716Z,1015.56
2023-04-27T06:48:52.722Z,1015.58
2023-04-27T06:49:52.727Z,1015.60
2023-04-27T06:50:52.774Z,1015.60
2023-04-27T06:51:52.694Z,1015.65
2023-04-27T06:52:52.712Z,1015.64
2023-04-27T06:53:54.871Z,1015.63
2023-04-27T06:54:52.688Z,1015.66
2023-04-27T06:55:52.762Z,1015.64
2023-04-27T06:56:52.676Z,1015.65
2023-04-27T06:57:52.675Z,1015.62
2023-04-27T06:58:52.740Z,1015.62
2023-04-27T07:00:52.717Z,1015.62
2023-04-27T07:01:52.775Z,1015.62
2023-04-27T07:02:52.854Z,1015.62
2023-04-27T07:03:52.909Z,1015.63
2023-04-27T07:04:52.830Z,1015.58
2023-04-27T07:05:53.092Z,1015.60
2023-04-27T07:06:52.715Z,1015.62
2023-04-27T07:07:52.685Z,1015.59
2023-04-27T07:08:52.715Z,1015.56
2023-04-27T07:09:52.694Z,1015.54
2023-04-27T07:10:52.665Z,1015.53
2023-04-27T07:11:52.712Z,1015.52
2023-04-27T07:12:52.766Z,1015.53
2023-04-27T07:13:52.682Z,1015.53
2023-04-27T07:14:52.676Z,1015.54
2023-04-27T07:15:52.670Z,1015.54
2023-04-27T07:16:53.390Z,1015.54
2023-04-27T07:17:52.727Z,1015.60
2023-04-27T07:18:52.723Z,1015.57
2023-04-27T07:19:52.786Z,1015.57
2023-04-27T07:20:52.693Z,1015.59
2023-04-27T07:21:52.671Z,1015.62
2023-04-27T07:22:52.672Z,1015.57
2023-04-27T07:23:54.173Z,1015.65
2023-04-27T07:24:52.624Z,1015.61
2023-04-27T07:25:52.665Z,1015.62
2023-04-27T07:26:52.689Z,1015.60
2023-04-27T07:27:53.036Z,1015.56
2023-04-27T07:28:52.653Z,1015.57
2023-04-27T07:29:52.649Z,1015.57
2023-04-27T07:30:52.639Z,1015.54
2023-04-27T07:31:52.966Z,1015.56
2023-04-27T07:32:52.752Z,1015.54
2023-04-27T07:33:52.688Z,1015.54
2023-04-27T07:34:54.332Z,1015.54
2023-04-27T07:35:52.911Z,1015.55
2023-04-27T07:36:52.620Z,1015.55
2023-04-27T07:37:52.693Z,1015.59
2023-04-27T07:38:52.633Z,1015.55
2023-04-27T07:39:52.772Z,1015.57
2023-04-27T07:40:53.641Z,1015.52
2023-04-27T07:41:52.707Z,1015.53
2023-04-27T07:42:52.778Z,1015.51
2023-04-27T07:43:52.631Z,1015.51
2023-04-27T07:44:52.758Z,1015.50
2023-04-27T07:45:53.462Z,1015.52
2023-04-27T07:46:52.614Z,1015.53
2023-04-27T07:47:52.676Z,1015.49
2023-04-27T07:48:52.627Z,1015.52
2023-04-27T07:49:52.627Z,1015.51
2023-04-27T07:50:52.758Z,1015.50
2023-04-27T07:51:52.663Z,1015.45
2023-04-27T07:52:52.622Z,1015.49
2023-04-27T07:53:52.625Z,1015.44
2023-04-27T07:54:52.689Z,1015.42
2023-04-27T07:55:52.647Z,1015.45
2023-04-27T07:56:52.610Z,1015.44
2023-04-27T07:57:52.637Z,1015.43
2023-04-27T07:58:52.668Z,1015.43
2023-04-27T07:59:52.696Z,1015.43
2023-04-27T08:00:52.961Z,1015.44
2023-04-27T08:01:54.389Z,1015.42
2023-04-27T08:02:52.908Z,1015.40
2023-04-27T08:03:52.856Z,1015.41
2023-04-27T08:04:53.107Z,1015.39
2023-04-27T08:05:53.001Z,1015.40
2023-04-27T08:06:53.130Z,1015.44
2023-04-27T08:07:53.155Z,1015.45
2023-04-27T08:08:52.613Z,1015.44
2023-04-27T08:09:52.606Z,1015.48
2023-04-27T08:10:52.601Z,1015.47
2023-04-27T08:11:52.609Z,1015.53
2023-04-27T08:12:52.587Z,1015.53
2023-04-27T08:13:52.634Z,1015.54
2023-04-27T08:14:52.602Z,1015.56
2023-04-27T08:15:52.599Z,1015.54
2023-04-27T08:16:52.597Z,1015.56
2023-04-27T08:17:52.814Z,1015.58
2023-04-27T08:18:52.627Z,1015.61
2023-04-27T08:19:52.631Z,1015.55
2023-04-27T08:20:52.575Z,1015.59
2023-04-27T08:21:52.592Z,1015.52
2023-04-27T08:22:52.614Z,1015.55
2023-04-27T08:23:52.586Z,1015.54
2023-04-27T08:24:52.604Z,1015.48
2023-04-27T08:25:52.628Z,1015.48
2023-04-27T08:26:52.588Z,1015.49
2023-04-27T08:27:52.648Z,1015.49
2023-04-27T08:28:52.595Z,1015.47
2023-04-27T08:29:52.603Z,1015.47
2023-04-27T08:30:52.651Z,1015.49
2023-04-27T08:31:54.983Z,1015.48
2023-04-27T08:32:52.796Z,1015.50
2023-04-27T08:33:52.590Z,1015.52
2023-04-27T08:34:52.609Z,1015.52
2023-04-27T08:35:52.631Z,1015.49
2023-04-27T08:36:52.636Z,1015.55
2023-04-27T08:37:52.656Z,1015.52
2023-04-27T08:38:52.638Z,1015.54
2023-04-27T08:39:52.589Z,1015.57
2023-04-27T08:40:52.562Z,1015.54
2023-04-27T08:41:52.606Z,1015.54
2023-04-27T08:42:52.566Z,1015.54
2023-04-27T08:43:52.590Z,1015.53
2023-04-27T08:44:52.582Z,1015.50
2023-04-27T08:45:52.760Z,1015.53
2023-04-27T08:46:52.651Z,1015.53
2023-04-27T08:47:52.621Z,1015.53
2023-04-27T08:48:52.638Z,1015.53
2023-04-27T08:49:52.645Z,1015.52
2023-04-27T08:50:52.607Z,1015.53
2023-04-27T08:51:52.583Z,1015.55
2023-04-27T08:52:52.670Z,1015.57
2023-04-27T08:53:52.573Z,1015.54
2023-04-27T08:54:52.693Z,1015.52
2023-04-27T08:55:52.599Z,1015.53
2023-04-27T08:56:52.631Z,1015.52
2023-04-27T08:57:52.565Z,1015.52
2023-04-27T08:58:52.595Z,1015.50
2023-04-27T08:59:52.598Z,1015.51
2023-04-27T09:00:52.723Z,1015.49
2023-04-27T09:01:52.652Z,1015.49
2023-04-27T09:02:52.869Z,1015.52
2023-04-27T09:03:52.745Z,1015.53
2023-04-27T09:04:52.658Z,1015.53
2023-04-27T09:06:03.883Z,1015.52
2023-04-27T09:10:50.071Z,1015.48
2023-04-27T09:11:50.100Z,1015.50
2023-04-27T09:12:50.318Z,1015.51
2023-04-27T09:13:50.065Z,1015.49
2023-04-27T09:14:50.039Z,1015.50
2023-04-27T09:15:50.252Z,1015.50
2023-04-27T09:16:50.156Z,1015.51
2023-04-27T09:17:50.091Z,1015.51
2023-04-27T09:18:50.057Z,1015.50
2023-04-27T09:19:50.124Z,1015.55
2023-04-27T09:20:50.043Z,1015.52
2023-04-27T09:21:50.198Z,1015.49
2023-04-27T09:22:50.218Z,1015.49
2023-04-27T09:23:50.031Z,1015.50
2023-04-27T09:24:50.056Z,1015.47
2023-04-27T09:25:50.053Z,1015.48
2023-04-27T09:26:50.104Z,1015.45
2023-04-27T09:27:50.181Z,1015.43
2023-04-27T09:28:50.180Z,1015.45
2023-04-27T09:29:50.096Z,1015.42
2023-04-27T09:30:50.075Z,1015.42
2023-04-27T09:31:50.222Z,1015.48
2023-04-27T09:32:50.077Z,1015.51
2023-04-27T09:33:50.171Z,1015.48
2023-04-27T09:34:50.108Z,1015.49
2023-04-27T09:35:50.071Z,1015.46
2023-04-27T09:36:50.122Z,1015.49
2023-04-27T09:37:50.043Z,1015.46
2023-04-27T09:38:50.046Z,1015.52
2023-04-27T09:39:50.175Z,1015.44
2023-04-27T09:40:50.315Z,1015.49
2023-04-27T09:41:50.058Z,1015.47
2023-04-27T09:42:50.044Z,1015.44
2023-04-27T09:43:50.079Z,1015.44
2023-04-27T09:44:50.146Z,1015.44
2023-04-27T09:45:50.272Z,1015.38
2023-04-27T09:46:50.073Z,1015.42
2023-04-27T09:47:50.116Z,1015.38
2023-04-27T09:48:50.101Z,1015.39
2023-04-27T09:49:50.202Z,1015.37
2023-04-27T09:50:50.158Z,1015.35
2023-04-27T09:51:50.054Z,1015.35
2023-04-27T09:52:50.076Z,1015.30
2023-04-27T09:53:50.233Z,1015.34
2023-04-27T09:54:50.052Z,1015.27
2023-04-27T09:55:51.630Z,1015.26
2023-04-27T09:56:50.084Z,1015.24
2023-04-27T09:57:50.104Z,1015.22
2023-04-27T09:58:50.504Z,1015.22
2023-04-27T09:59:50.161Z,1015.26
2023-04-27T10:00:50.148Z,1015.26
2023-04-27T10:12:46.703Z,1015.22
2023-04-27T10:13:46.757Z,1015.18
2023-04-27T10:14:46.708Z,1015.19
2023-04-27T10:15:49.236Z,1015.16
2023-04-27T10:16:46.911Z,1015.18
2023-04-27T10:17:46.766Z,1015.22
2023-04-27T10:18:46.798Z,1015.23
2023-04-27T10:19:46.685Z,1015.24
2023-04-27T10:20:46.691Z,1015.23
2023-04-27T10:21:47.249Z,1015.26
2023-04-27T10:22:46.716Z,1015.27
2023-04-27T10:23:46.714Z,1015.25
2023-04-27T10:24:46.704Z,1015.27
2023-04-27T10:25:46.665Z,1015.22
2023-04-27T10:26:46.659Z,1015.23
2023-04-27T10:27:46.654Z,1015.17
2023-04-27T10:28:46.696Z,1015.14
2023-04-27T10:29:47.409Z,1015.20
2023-04-27T10:30:46.901Z,1015.18
2023-04-27T10:31:46.743Z,1015.19
2023-04-27T10:32:46.814Z,1015.19
2023-04-27T10:33:46.760Z,1015.19
2023-04-27T10:34:46.707Z,1015.20
2023-04-27T10:35:46.705Z,1015.17
2023-04-27T10:36:46.704Z,1015.20
2023-04-27T10:37:46.694Z,1015.22
2023-04-27T10:38:46.747Z,1015.19
2023-04-27T10:39:49.202Z,1015.17
2023-04-27T10:40:46.708Z,1015.19
2023-04-27T10:41:46.702Z,1015.20
2023-04-27T10:42:46.737Z,1015.17
2023-04-27T10:43:46.693Z,1015.21
2023-04-27T10:44:46.694Z,1015.19
2023-04-27T10:46:46.771Z,1015.25
2023-04-27T10:47:46.718Z,1015.22
2023-04-27T10:48:46.702Z,1015.23
2023-04-27T10:49:46.699Z,1015.23
2023-04-27T10:50:46.732Z,1015.25
2023-04-27T10:51:46.717Z,1015.28
2023-04-27T10:52:46.756Z,1015.27
2023-04-27T10:53:46.761Z,1015.22
2023-04-27T10:54:46.707Z,1015.19
2023-04-27T10:55:46.789Z,1015.21
2023-04-27T10:56:46.758Z,1015.22
2023-04-27T10:57:46.748Z,1015.18
2023-04-27T10:58:49.232Z,1015.15
2023-04-27T10:59:46.698Z,1015.13
2023-04-27T11:00:46.735Z,1015.13
2023-04-27T11:01:46.795Z,1015.10
2023-04-27T11:02:46.805Z,1015.07
2023-04-27T11:03:46.998Z,1015.08
2023-04-27T11:04:46.808Z,1015.05
2023-04-27T11:05:46.739Z,1015.07
2023-04-27T11:06:47.060Z,1015.04
2023-04-27T11:07:46.774Z,1015.03
2023-04-27T11:08:46.738Z,1014.94
2023-04-27T11:09:46.839Z,1014.94
2023-04-27T11:10:46.730Z,1014.88
2023-04-27T11:11:46.840Z,1014.88
2023-04-27T11:12:46.757Z,1014.88
2023-04-27T11:13:47.401Z,1014.87
2023-04-27T11:14:46.803Z,1014.85
2023-04-27T11:15:46.840Z,1014.83
2023-04-27T11:16:47.076Z,1014.81
2023-04-27T11:17:46.838Z,1014.83
2023-04-27T11:18:46.798Z,1014.77
2023-04-27T11:19:46.795Z,1014.81
2023-04-27T11:20:46.796Z,1014.76
2023-04-27T11:21:46.880Z,1014.76
2023-04-27T11:22:46.781Z,1014.71
2023-04-27T11:23:46.745Z,1014.69
2023-04-27T11:24:46.808Z,1014.68
2023-04-27T11:25:46.797Z,1014.67
2023-04-27T11:26:46.828Z,1014.66
2023-04-27T11:27:46.857Z,1014.67
2023-04-27T11:28:46.772Z,1014.68
2023-04-27T11:29:46.991Z,1014.70
2023-04-27T11:30:46.763Z,1014.68
2023-04-27T11:31:46.813Z,1014.71
2023-04-27T11:32:46.868Z,1014.69
2023-04-27T11:33:46.796Z,1014.70
2023-04-27T11:34:46.857Z,1014.66
2023-04-27T11:35:46.783Z,1014.65
2023-04-27T11:36:46.834Z,1014.65
2023-04-27T11:37:46.788Z,1014.65
2023-04-27T11:38:46.902Z,1014.67
2023-04-27T11:39:46.945Z,1014.66
2023-04-27T11:40:46.850Z,1014.69
2023-04-27T11:41:46.829Z,1014.68
2023-04-27T11:42:46.804Z,1014.65
2023-04-27T11:43:46.842Z,1014.64
2023-04-27T11:44:46.818Z,1014.68
2023-04-27T11:45:46.862Z,1014.65
2023-04-27T11:46:46.883Z,1014.67
2023-04-27T11:47:46.861Z,1014.65
2023-04-27T11:48:47.103Z,1014.64
2023-04-27T11:49:46.820Z,1014.66
2023-04-27T11:50:46.885Z,1014.64
2023-04-27T11:51:46.922Z,1014.65
2023-04-27T11:52:46.851Z,1014.67
2023-04-27T11:53:46.832Z,1014.66
2023-04-27T11:54:46.857Z,1014.63
2023-04-27T11:55:46.892Z,1014.66
2023-04-27T11:56:46.844Z,1014.65
2023-04-27T11:57:46.973Z,1014.60
2023-04-27T11:58:46.856Z,1014.62
2023-04-27T11:59:47.560Z,1014.62
2023-04-27T12:00:47.074Z,1014.65
2023-04-27T12:01:46.955Z,1014.63
2023-04-27T12:02:47.004Z,1014.64
2023-04-27T12:03:47.185Z,1014.66
2023-04-27T12:04:48.005Z,1014.68
2023-04-27T12:05:46.952Z,1014.65
2023-04-27T12:06:46.955Z,1014.63
2023-04-27T12:07:46.942Z,1014.63
2023-04-27T12:08:47.080Z,1014.64
2023-04-27T12:09:46.970Z,1014.66
2023-04-27T12:10:47.168Z,1014.63
2023-04-27T12:11:47.032Z,1014.66
2023-04-27T12:12:46.960Z,1014.64
2023-04-27T12:13:46.949Z,1014.64
2023-04-27T12:14:46.966Z,1014.65
2023-04-27T12:15:46.980Z,1014.64
2023-04-27T12:16:47.046Z,1014.64
2023-04-27T12:17:47.000Z,1014.62
2023-04-27T12:18:47.069Z,1014.65
2023-04-27T12:19:47.054Z,1014.64
2023-04-27T12:20:47.012Z,1014.64
2023-04-27T12:21:46.977Z,1014.62
2023-04-27T12:23:46.982Z,1014.62
2023-04-27T12:24:46.984Z,1014.62
2023-04-27T12:25:46.985Z,1014.61
2023-04-27T12:26:47.005Z,1014.64
2023-04-27T12:27:46.998Z,1014.59
2023-04-27T12:28:47.017Z,1014.55
2023-04-27T12:29:47.136Z,1014.55
2023-04-27T12:30:47.103Z,1014.58
2023-04-27T12:31:47.058Z,1014.55
2023-04-27T12:32:47.065Z,1014.55
2023-04-27T12:33:47.030Z,1014.57
2023-04-27T12:34:47.133Z,1014.58
2023-04-27T12:35:47.036Z,1014.60
2023-04-27T12:36:47.094Z,1014.58
2023-04-27T12:37:47.052Z,1014.61
2023-04-27T12:38:47.082Z,1014.63
2023-04-27T12:39:47.066Z,1014.60
2023-04-27T12:40:47.068Z,1014.57
2023-04-27T12:41:47.069Z,1014.56
2023-04-27T12:42:47.082Z,1014.59
2023-04-27T12:43:47.088Z,1014.56
2023-04-27T12:44:47.155Z,1014.62
2023-04-27T12:45:47.097Z,1014.59
2023-04-27T12:46:47.184Z,1014.58
2023-04-27T12:48:01.786Z,1014.55
2023-04-27T12:48:47.161Z,1014.55
2023-04-27T12:49:47.142Z,1014.58
2023-04-27T12:50:47.133Z,1014.56
2023-04-27T12:51:47.175Z,1014.58
2023-04-27T12:52:47.151Z,1014.62
2023-04-27T12:53:47.138Z,1014.60
2023-04-27T12:54:47.176Z,1014.55
2023-04-27T12:55:47.160Z,1014.57
2023-04-27T12:56:47.170Z,1014.55
2023-04-27T12:57:47.172Z,1014.57
2023-04-27T12:59:47.241Z,1014.54
2023-04-27T13:00:47.325Z,1014.54
2023-04-27T13:01:47.289Z,1014.57
2023-04-27T13:02:47.348Z,1014.54
2023-04-27T13:03:47.340Z,1014.53
2023-04-27T13:04:47.365Z,1014.53
2023-04-27T13:05:47.256Z,1014.52
2023-04-27T13:06:47.251Z,1014.54
2023-04-27T13:07:47.212Z,1014.53
2023-04-27T13:08:47.278Z,1014.50
2023-04-27T13:09:47.261Z,1014.53
2023-04-27T13:10:47.233Z,1014.53
2023-04-27T13:11:47.275Z,1014.61
2023-04-27T13:12:47.253Z,1014.59
2023-04-27T13:13:47.263Z,1014.57
2023-04-27T13:14:47.254Z,1014.57
2023-04-27T13:15:47.334Z,1014.54
2023-04-27T13:16:47.284Z,1014.51
2023-04-27T13:17:47.291Z,1014.52
2023-04-27T13:18:47.314Z,1014.56
2023-04-27T13:19:47.298Z,1014.54
2023-04-27T13:20:47.346Z,1014.53
2023-04-27T13:24:19.914Z,1014.48
2023-04-27T13:25:19.892Z,1014.52
2023-04-27T13:26:19.926Z,1014.52
2023-04-27T13:27:42.018Z,1014.46
2023-04-27T13:28:19.924Z,1014.47
2023-04-27T13:29:19.918Z,1014.46
2023-04-27T13:30:19.957Z,1014.44
2023-04-27T13:31:19.950Z,1014.45
2023-04-27T13:32:20.118Z,1014.43
2023-04-27T13:33:23.367Z,1014.43
2023-04-27T13:34:19.918Z,1014.44
2023-04-27T13:35:19.949Z,1014.43
2023-04-27T13:36:19.952Z,1014.40
2023-04-27T13:37:19.912Z,1014.37
2023-04-27T13:38:19.970Z,1014.37
2023-04-27T13:39:19.964Z,1014.33
2023-04-27T13:40:19.964Z,1014.29
2023-04-27T13:41:20.006Z,1014.25
2023-04-27T13:42:19.976Z,1014.27
2023-04-27T13:43:19.987Z,1014.25
2023-04-27T13:44:20.114Z,1014.29
2023-04-27T13:45:21.342Z,1014.24
2023-04-27T13:46:20.039Z,1014.24
2023-04-27T13:47:20.020Z,1014.25
2023-04-27T13:48:20.124Z,1014.22
2023-04-27T13:49:19.992Z,1014.26
2023-04-27T13:50:20.212Z,1014.22
2023-04-27T13:51:20.002Z,1014.23
2023-04-27T13:52:19.997Z,1014.19
2023-04-27T13:53:20.018Z,1014.19
2023-04-27T13:54:20.009Z,1014.22
2023-04-27T13:55:20.018Z,1014.16
2023-04-27T13:56:20.042Z,1014.19
2023-04-27T13:57:20.055Z,1014.15
2023-04-27T13:58:20.051Z,1014.21
2023-04-27T13:59:20.036Z,1014.15
2023-04-27T14:00:20.100Z,1014.17
2023-04-27T14:01:20.116Z,1014.19
2023-04-27T14:02:20.103Z,1014.17
2023-04-27T14:03:20.284Z,1014.15
2023-04-27T14:04:20.262Z,1014.13
2023-04-27T14:05:20.086Z,1014.13
2023-04-27T14:06:20.100Z,1014.15
2023-04-27T14:07:20.083Z,1014.08
2023-04-27T14:08:20.094Z,1014.08
2023-04-27T14:09:20.128Z,1014.09
2023-04-27T14:10:20.155Z,1014.04
2023-04-27T14:11:20.124Z,1014.02
2023-04-27T14:12:20.143Z,1014.06
2023-04-27T14:13:20.146Z,1014.06
2023-04-27T14:14:20.115Z,1014.01
2023-04-27T14:15:20.155Z,1013.97
2023-04-27T14:16:20.163Z,1013.98
2023-04-27T14:17:20.130Z,1013.97
2023-04-27T14:18:20.251Z,1014.01
2023-04-27T14:19:20.147Z,1013.99
2023-04-27T14:20:20.190Z,1013.99
2023-04-27T14:21:20.187Z,1013.95
2023-04-27T14:22:20.176Z,1013.98
2023-04-27T14:23:20.193Z,1013.96
2023-04-27T14:24:20.172Z,1013.98
2023-04-27T14:25:20.178Z,1014.00
2023-04-27T14:26:20.199Z,1013.99
2023-04-27T14:27:20.184Z,1013.98
2023-04-27T14:28:20.218Z,1013.97
2023-04-27T14:29:20.194Z,1013.93
2023-04-27T14:30:20.206Z,1013.96
2023-04-27T14:31:20.275Z,1013.93
2023-04-27T14:32:20.312Z,1013.96
2023-04-27T14:33:20.210Z,1013.92
2023-04-27T14:34:21.673Z,1013.91
2023-04-27T14:35:20.230Z,1013.94
2023-04-27T14:36:20.236Z,1013.96
2023-04-27T14:37:20.242Z,1013.95
2023-04-27T14:38:20.291Z,1013.97
2023-04-27T14:39:20.261Z,1013.94
2023-04-27T14:40:20.258Z,1013.95
2023-04-27T14:41:20.278Z,1013.97
2023-04-27T14:42:20.246Z,1013.95
2023-04-27T14:43:20.284Z,1013.96
2023-04-27T14:44:20.329Z,1013.95
2023-04-27T14:45:20.868Z,1013.94
2023-04-27T14:46:21.392Z,1013.94
2023-04-27T14:47:20.315Z,1013.91
2023-04-27T14:48:20.317Z,1013.92
2023-04-27T14:49:20.303Z,1013.92
2023-04-27T14:50:20.342Z,1013.94
2023-04-27T14:51:20.351Z,1013.93
2023-04-27T14:52:20.337Z,1013.90
2023-04-27T14:53:20.301Z,1013.91
2023-04-27T14:54:20.328Z,1013.97
2023-04-27T14:55:20.322Z,1013.95
2023-04-27T14:56:20.339Z,1013.92
2023-04-27T14:57:20.362Z,1013.93
2023-04-27T14:58:20.350Z,1013.91
2023-04-27T14:59:20.370Z,1013.89
2023-04-27T15:00:20.360Z,1013.88
2023-04-27T15:01:20.390Z,1013.83
2023-04-27T15:02:20.434Z,1013.81
2023-04-27T15:03:20.546Z,1013.82
2023-04-27T15:04:20.426Z,1013.80
2023-04-27T15:05:20.395Z,1013.79
2023-04-27T15:06:20.386Z,1013.78
2023-04-27T15:07:20.369Z,1013.75
2023-04-27T15:08:20.364Z,1013.80
2023-04-27T15:09:20.376Z,1013.75
2023-04-27T15:10:20.405Z,1013.74
2023-04-27T15:11:20.415Z,1013.75
2023-04-27T15:12:20.377Z,1013.73
2023-04-27T15:13:20.378Z,1013.77
2023-04-27T15:14:20.389Z,1013.78
2023-04-27T15:15:20.398Z,1013.78
2023-04-27T15:16:20.563Z,1013.77
2023-04-27T15:17:20.431Z,1013.75
2023-04-27T15:18:21.367Z,1013.77
2023-04-27T15:19:20.411Z,1013.79
2023-04-27T15:20:20.436Z,1013.77
2023-04-27T15:21:20.432Z,1013.80
2023-04-27T15:22:20.413Z,1013.77
2023-04-27T15:23:20.413Z,1013.80
2023-04-27T15:24:20.424Z,1013.74
2023-04-27T15:25:20.451Z,1013.74
2023-04-27T15:26:20.447Z,1013.80
2023-04-27T15:27:20.414Z,1013.76
2023-04-27T15:28:20.420Z,1013.74
2023-04-27T15:29:20.426Z,1013.74
2023-04-27T15:30:20.464Z,1013.73
2023-04-27T15:31:20.485Z,1013.75
2023-04-27T15:32:20.457Z,1013.72
2023-04-27T15:33:21.145Z,1013.71
2023-04-27T15:34:20.437Z,1013.67
2023-04-27T15:35:20.485Z,1013.69
2023-04-27T15:36:20.441Z,1013.67
2023-04-27T15:37:20.441Z,1013.67
2023-04-27T15:38:20.480Z,1013.66
2023-04-27T15:39:20.462Z,1013.67
2023-04-27T15:40:20.487Z,1013.65
2023-04-27T15:41:20.454Z,1013.69
2023-04-27T15:42:20.451Z,1013.65
2023-04-27T15:43:20.460Z,1013.65
2023-04-27T15:44:20.463Z,1013.66
2023-04-27T15:45:20.523Z,1013.57
2023-04-27T15:46:20.492Z,1013.58
2023-04-27T15:47:20.508Z,1013.53
2023-04-27T15:48:20.515Z,1013.51
2023-04-27T15:49:20.469Z,1013.51
2023-04-27T15:50:20.521Z,1013.50
2023-04-27T15:51:20.470Z,1013.47
2023-04-27T15:52:20.469Z,1013.49
2023-04-27T15:53:20.476Z,1013.46
2023-04-27T15:54:20.486Z,1013.49
2023-04-27T15:55:20.510Z,1013.51
2023-04-27T15:56:20.473Z,1013.51
2023-04-27T15:57:20.472Z,1013.55
2023-04-27T15:58:20.506Z,1013.52
2023-04-27T15:59:20.501Z,1013.49
2023-04-27T16:00:20.487Z,1013.53
2023-04-27T16:11:52.744Z,1013.48
2023-04-27T16:12:52.711Z,1013.49
2023-04-27T16:13:52.704Z,1013.50
2023-04-27T16:14:52.694Z,1013.57
2023-04-27T16:15:52.688Z,1013.55
2023-04-27T16:16:52.703Z,1013.57
2023-04-27T16:17:53.234Z,1013.53
2023-04-27T16:18:52.701Z,1013.53
2023-04-27T16:19:52.681Z,1013.53
2023-04-27T16:20:52.673Z,1013.52
2023-04-27T16:21:52.703Z,1013.52
2023-04-27T16:22:52.697Z,1013.49
2023-04-27T16:23:52.664Z,1013.47
2023-04-27T16:24:52.671Z,1013.45
2023-04-27T16:25:52.687Z,1013.45
2023-04-27T16:26:52.688Z,1013.45
2023-04-27T16:27:52.676Z,1013.42
2023-04-27T16:28:52.677Z,1013.40
2023-04-27T16:29:52.663Z,1013.35
2023-04-27T16:30:52.662Z,1013.36
2023-04-27T16:31:52.855Z,1013.34
2023-04-27T16:32:52.698Z,1013.30
2023-04-27T16:33:52.656Z,1013.28
2023-04-27T16:34:52.676Z,1013.29
2023-04-27T16:35:52.663Z,1013.30
2023-04-27T16:36:52.677Z,1013.31
2023-04-27T16:37:52.658Z,1013.26